Time;durP1;ratioP1;P1;durP2;ratioP2;P2;SDS_P1;SDS_P2;PMS_P1;PMS_P2;Temp;Humidity;BMP_temperature;BMP_pressure;BME280_temperature;BME280_humidity;BME280_pressure;Samples;Min_cycle;Max_cycle;Signal;HPM_P1;HPM_P2
2022/02/25 00:00:32;;;;;;;4.90;2.90;;;2.90;99.90;;;;;;5077112;28;20250;-82
2022/02/25 00:02:58;;;;;;;4.80;2.90;;;2.90;99.90;;;;;;5078851;28;20208;-83
2022/02/25 00:05:24;;;;;;;5.17;2.47;;;2.90;99.90;;;;;;5076658;28;20186;-82
2022/02/25 00:07:50;;;;;;;3.40;2.60;;;2.90;99.90;;;;;;5076231;28;20239;-83
2022/02/25 00:10:16;;;;;;;4.20;2.60;;;2.90;99.90;;;;;;5075980;28;20412;-81
2022/02/25 00:12:42;;;;;;;4.50;2.33;;;2.90;99.90;;;;;;5077777;28;20449;-82
2022/02/25 00:15:07;;;;;;;4.10;2.37;;;2.90;99.90;;;;;;5077454;28;20178;-83
2022/02/25 00:17:33;;;;;;;5.43;2.80;;;2.90;99.90;;;;;;5075270;28;20211;-82
2022/02/25 00:19:59;;;;;;;7.97;3.17;;;2.90;99.90;;;;;;5076871;28;20220;-83
2022/02/25 00:22:24;;;;;;;6.07;2.30;;;2.90;99.90;;;;;;5074682;28;20232;-81
2022/02/25 00:24:50;;;;;;;4.80;1.93;;;3.00;99.90;;;;;;5075142;28;20333;-82
2022/02/25 00:27:16;;;;;;;4.70;2.30;;;2.90;99.90;;;;;;5074473;28;20201;-83
2022/02/25 00:29:41;;;;;;;3.67;2.10;;;2.90;99.90;;;;;;5074723;28;20180;-83
2022/02/25 00:32:08;;;;;;;8.47;1.97;;;3.00;99.90;;;;;;5074174;28;20206;-82
2022/02/25 00:34:33;;;;;;;3.33;1.80;;;3.00;99.90;;;;;;5074558;28;20221;-84
2022/02/25 00:36:59;;;;;;;4.20;2.03;;;3.00;99.90;;;;;;5075937;28;21027;-83
2022/02/25 00:39:24;;;;;;;7.03;2.30;;;3.00;99.90;;;;;;5076381;28;20675;-81
2022/02/25 00:41:50;;;;;;;4.80;2.13;;;3.00;99.90;;;;;;5074390;28;20251;-82
2022/02/25 00:44:16;;;;;;;3.20;1.87;;;3.00;99.90;;;;;;5075869;28;20178;-82
2022/02/25 00:46:41;;;;;;;3.30;2.20;;;3.00;99.90;;;;;;5075372;28;20612;-82
2022/02/25 00:49:07;;;;;;;10.10;2.30;;;3.00;99.90;;;;;;5075177;28;20201;-81
2022/02/25 00:51:33;;;;;;;6.27;2.00;;;3.00;99.90;;;;;;5075179;28;20210;-83
2022/02/25 00:54:01;;;;;;;4.10;1.63;;;3.00;99.90;;;;;;5076022;28;20179;-82
2022/02/25 00:56:27;;;;;;;5.13;2.50;;;3.10;99.90;;;;;;5075042;28;20174;-82
2022/02/25 00:58:53;;;;;;;7.20;1.93;;;3.00;99.90;;;;;;5073150;28;20485;-81
2022/02/25 01:01:19;;;;;;;8.50;2.10;;;3.10;99.90;;;;;;5074882;28;20197;-82
2022/02/25 01:03:45;;;;;;;5.80;1.57;;;3.10;99.90;;;;;;5073314;28;20471;-83
2022/02/25 01:06:11;;;;;;;6.03;1.77;;;3.10;99.90;;;;;;5073918;28;20704;-81
2022/02/25 01:08:36;;;;;;;2.87;1.60;;;3.00;99.90;;;;;;5073011;28;20206;-82
2022/02/25 01:11:02;;;;;;;9.03;2.10;;;3.00;99.90;;;;;;5075336;28;20428;-84
2022/02/25 01:13:28;;;;;;;10.77;2.93;;;3.00;99.90;;;;;;5073087;28;20175;-82
2022/02/25 01:15:54;;;;;;;5.13;1.70;;;3.00;99.90;;;;;;5073413;28;20477;-81
2022/02/25 01:18:20;;;;;;;3.67;2.40;;;2.90;99.90;;;;;;5072995;28;20181;-82
2022/02/25 01:20:45;;;;;;;4.90;1.83;;;2.90;99.90;;;;;;5073022;28;20189;-82
2022/02/25 01:23:11;;;;;;;5.10;1.83;;;3.00;99.90;;;;;;5073396;28;20477;-81
2022/02/25 01:25:37;;;;;;;3.10;1.47;;;3.00;99.90;;;;;;5074671;28;20181;-83
2022/02/25 01:28:03;;;;;;;3.40;2.17;;;2.90;99.90;;;;;;5074182;28;20288;-81
2022/02/25 01:30:29;;;;;;;5.00;2.10;;;2.90;99.90;;;;;;5074160;28;20891;-81
2022/02/25 01:32:55;;;;;;;2.90;1.70;;;2.90;99.90;;;;;;5072829;28;20696;-83
2022/02/25 01:35:20;;;;;;;4.03;2.10;;;3.00;99.90;;;;;;5074158;28;20177;-82
2022/02/25 01:37:46;;;;;;;6.80;2.10;;;3.00;99.90;;;;;;5074396;28;20174;-81
2022/02/25 01:40:12;;;;;;;4.57;2.10;;;3.10;99.90;;;;;;5074244;28;20171;-82
2022/02/25 01:42:49;;;;;;;3.80;1.60;;;3.10;99.90;;;;;;5074476;28;20195;-82
2022/02/25 01:45:15;;;;;;;5.40;3.23;;;3.10;99.90;;;;;;5072682;28;20438;-82
2022/02/25 01:47:41;;;;;;;9.83;2.33;;;3.10;99.90;;;;;;5073645;28;20967;-82
2022/02/25 01:50:07;;;;;;;8.83;2.17;;;3.00;99.90;;;;;;5073129;28;20519;-82
2022/02/25 01:52:33;;;;;;;4.03;2.43;;;3.10;99.90;;;;;;5173326;22;21713;-80
2022/02/25 01:54:59;;;;;;;4.37;1.83;;;3.00;99.90;;;;;;5087890;28;20416;-80
2022/02/25 01:57:24;;;;;;;6.33;2.23;;;3.10;99.90;;;;;;5072404;28;20227;-80
2022/02/25 01:59:50;;;;;;;7.97;2.60;;;3.10;99.90;;;;;;5072343;28;20216;-81
2022/02/25 02:02:15;;;;;;;8.03;1.97;;;3.10;99.90;;;;;;5090686;28;20217;-80
2022/02/25 02:04:41;;;;;;;8.87;2.20;;;3.00;99.90;;;;;;5075790;28;20187;-80
2022/02/25 02:07:08;;;;;;;4.63;1.60;;;3.00;99.90;;;;;;5075541;28;20206;-81
2022/02/25 02:09:34;;;;;;;3.90;1.93;;;3.00;99.90;;;;;;5075501;28;20252;-80
2022/02/25 02:12:00;;;;;;;8.63;2.03;;;3.00;99.90;;;;;;5074166;28;20498;-81
2022/02/25 02:14:26;;;;;;;4.70;1.80;;;3.00;99.90;;;;;;5075770;28;20410;-80
2022/02/25 02:16:55;;;;;;;8.10;1.80;;;3.00;99.90;;;;;;5074073;28;20468;-80
2022/02/25 02:19:21;;;;;;;2.70;1.60;;;3.10;99.90;;;;;;5075530;28;20434;-81
2022/02/25 02:21:50;;;;;;;3.47;1.80;;;3.10;99.90;;;;;;5073922;28;20474;-80
2022/02/25 02:24:17;;;;;;;3.80;1.90;;;3.00;99.90;;;;;;5075217;28;20495;-80
2022/02/25 02:26:44;;;;;;;4.30;1.70;;;3.00;99.90;;;;;;5074871;28;20974;-81
2022/02/25 02:29:10;;;;;;;4.23;2.07;;;3.00;99.90;;;;;;5075165;28;20512;-80
2022/02/25 02:31:36;;;;;;;5.63;2.57;;;3.00;99.90;;;;;;5075375;28;20419;-80
2022/02/25 02:34:03;;;;;;;5.03;2.10;;;3.00;99.90;;;;;;5073897;28;20444;-81
2022/02/25 02:36:29;;;;;;;6.80;2.70;;;3.00;99.90;;;;;;5074829;28;20416;-80
2022/02/25 02:38:55;;;;;;;7.77;2.30;;;3.00;99.90;;;;;;5074855;28;20412;-80
2022/02/25 02:41:21;;;;;;;5.97;1.63;;;3.00;99.90;;;;;;5075004;28;20507;-80
2022/02/25 02:43:46;;;;;;;3.30;1.60;;;3.00;99.90;;;;;;5073399;28;20357;-81
2022/02/25 02:46:13;;;;;;;3.20;1.70;;;3.00;99.90;;;;;;5073360;28;20570;-80
2022/02/25 02:48:39;;;;;;;6.57;1.83;;;3.10;99.90;;;;;;5074404;28;20250;-81
2022/02/25 02:51:05;;;;;;;7.40;2.17;;;3.00;99.90;;;;;;5074693;28;20424;-81
2022/02/25 02:53:31;;;;;;;4.80;1.70;;;3.00;99.90;;;;;;5073150;28;20491;-81
2022/02/25 02:55:57;;;;;;;6.23;2.13;;;3.00;99.90;;;;;;5074627;28;20176;-81
2022/02/25 02:58:23;;;;;;;4.50;2.27;;;3.00;99.90;;;;;;5074450;28;20413;-80
2022/02/25 03:00:50;;;;;;;5.73;1.93;;;3.00;99.90;;;;;;5074367;28;20471;-80
2022/02/25 03:03:16;;;;;;;4.90;2.20;;;3.00;99.90;;;;;;5074495;28;20197;-81
2022/02/25 03:05:42;;;;;;;3.60;1.60;;;3.00;99.90;;;;;;5074150;28;20416;-81
2022/02/25 03:08:08;;;;;;;5.50;2.10;;;3.00;99.90;;;;;;5073994;28;20456;-81
2022/02/25 03:10:34;;;;;;;13.43;2.30;;;3.00;99.90;;;;;;5074388;28;20496;-81
2022/02/25 03:13:02;;;;;;;10.33;2.00;;;3.00;99.90;;;;;;5074161;28;20522;-81
2022/02/25 03:15:27;;;;;;;7.10;1.80;;;2.90;99.90;;;;;;5074152;28;20409;-80
2022/02/25 03:17:53;;;;;;;3.60;1.40;;;3.00;99.90;;;;;;5074167;28;20421;-80
2022/02/25 03:20:19;;;;;;;6.10;2.47;;;3.00;99.90;;;;;;5074083;28;20226;-80
2022/02/25 03:22:45;;;;;;;7.10;1.77;;;3.00;99.90;;;;;;5074182;28;20470;-81
2022/02/25 03:25:13;;;;;;;5.70;2.20;;;3.00;99.90;;;;;;5073952;28;20223;-81
2022/02/25 03:27:39;;;;;;;3.43;1.63;;;3.00;99.90;;;;;;5072347;28;20513;-80
2022/02/25 03:30:05;;;;;;;4.33;2.20;;;2.90;99.90;;;;;;5074154;28;20412;-80
2022/02/25 03:32:31;;;;;;;4.27;1.57;;;2.90;99.90;;;;;;5073927;28;20522;-81
2022/02/25 03:34:56;;;;;;;4.87;1.70;;;2.90;99.90;;;;;;5073844;28;20830;-81
2022/02/25 03:37:22;;;;;;;3.33;1.63;;;2.80;99.90;;;;;;5073256;28;20653;-81
2022/02/25 03:39:48;;;;;;;3.87;2.30;;;2.80;99.90;;;;;;5073734;28;20649;-81
2022/02/25 03:42:13;;;;;;;5.37;1.87;;;2.70;99.90;;;;;;5073604;28;20218;-81
2022/02/25 03:44:39;;;;;;;7.20;1.90;;;2.60;99.90;;;;;;5074182;28;20612;-82
2022/02/25 03:47:05;;;;;;;7.73;2.43;;;2.60;99.90;;;;;;5079382;28;20726;-82
2022/02/25 03:49:30;;;;;;;3.70;2.40;;;2.60;99.90;;;;;;5078774;28;20182;-82
2022/02/25 03:51:56;;;;;;;5.03;1.70;;;2.60;99.90;;;;;;5078736;28;20426;-82
2022/02/25 03:54:22;;;;;;;5.27;1.70;;;2.50;99.90;;;;;;5078368;28;20215;-82
2022/02/25 03:56:47;;;;;;;5.60;1.93;;;2.50;99.90;;;;;;5076587;28;20217;-82
2022/02/25 03:59:13;;;;;;;5.10;2.23;;;2.50;99.90;;;;;;5078006;28;20188;-82
2022/02/25 04:01:39;;;;;;;6.10;2.03;;;2.40;99.90;;;;;;5077702;28;20192;-82
2022/02/25 04:04:04;;;;;;;3.77;2.07;;;2.40;99.90;;;;;;5078172;28;20244;-81
2022/02/25 04:06:33;;;;;;;3.77;1.80;;;2.40;99.90;;;;;;5078016;28;20186;-82
2022/02/25 04:08:59;;;;;;;3.93;1.90;;;2.40;99.90;;;;;;5076205;28;20210;-82
2022/02/25 04:11:26;;;;;;;6.50;2.73;;;2.40;99.90;;;;;;5077872;28;20475;-81
2022/02/25 04:13:53;;;;;;;5.10;2.00;;;2.30;99.90;;;;;;5077338;28;20434;-81
2022/02/25 04:16:20;;;;;;;6.10;2.20;;;2.40;99.90;;;;;;5077969;28;20204;-81
2022/02/25 04:18:45;;;;;;;3.60;1.90;;;2.40;99.90;;;;;;5077439;28;20418;-83
2022/02/25 04:21:11;;;;;;;5.50;2.67;;;2.30;99.90;;;;;;5077330;28;20509;-81
2022/02/25 04:23:37;;;;;;;5.47;2.63;;;2.40;99.90;;;;;;5076307;28;20276;-81
2022/02/25 04:26:03;;;;;;;4.80;1.80;;;2.40;99.90;;;;;;5077222;28;20778;-81
2022/02/25 04:28:29;;;;;;;6.30;2.77;;;2.40;99.90;;;;;;5077007;28;20275;-81
2022/02/25 04:30:54;;;;;;;8.30;2.10;;;2.40;99.90;;;;;;5077050;28;20442;-81
2022/02/25 04:33:20;;;;;;;6.27;2.30;;;2.30;99.90;;;;;;5076719;28;20614;-81
2022/02/25 04:35:46;;;;;;;3.30;1.63;;;2.30;99.90;;;;;;5076618;28;20246;-82
2022/02/25 04:38:11;;;;;;;6.13;2.07;;;2.30;99.90;;;;;;5077160;28;20234;-80
2022/02/25 04:40:37;;;;;;;7.50;2.17;;;2.30;99.90;;;;;;5076876;28;20189;-81
2022/02/25 04:43:04;;;;;;;4.50;2.17;;;2.40;99.90;;;;;;5076785;28;20204;-81
2022/02/25 04:45:30;;;;;;;7.07;2.03;;;2.40;99.90;;;;;;5076843;28;20169;-82
2022/02/25 04:47:57;;;;;;;7.70;1.83;;;2.30;99.90;;;;;;5075933;28;20456;-80
2022/02/25 04:50:23;;;;;;;5.10;1.60;;;2.40;99.90;;;;;;5076519;28;20168;-82
2022/02/25 04:52:50;;;;;;;6.10;1.87;;;2.30;99.90;;;;;;5076287;28;20807;-82
2022/02/25 04:55:19;;;;;;;5.47;2.43;;;2.40;99.90;;;;;;5075951;28;20887;-82
2022/02/25 04:57:44;;;;;;;12.60;2.60;;;2.40;99.90;;;;;;5075619;28;20418;-81
2022/02/25 05:00:11;;;;;;;6.70;1.90;;;2.50;99.90;;;;;;5074353;28;20800;-81
2022/02/25 05:02:46;;;;;;;12.37;2.83;;;2.40;99.90;;;;;;5075538;28;20226;-82
2022/02/25 05:05:13;;;;;;;10.27;2.20;;;2.50;99.90;;;;;;5075714;28;20829;-81
2022/02/25 05:07:39;;;;;;;3.90;2.10;;;2.50;99.90;;;;;;5075315;28;20450;-81
2022/02/25 05:10:05;;;;;;;7.37;1.70;;;2.50;99.90;;;;;;5076048;28;20476;-81
2022/02/25 05:12:31;;;;;;;5.93;2.00;;;2.60;99.90;;;;;;5074297;28;20639;-81
2022/02/25 05:20:25;;;;;;;8.93;2.03;;;2.60;99.90;;;;;;5072410;28;20453;-81
2022/02/25 05:23:00;;;;;;;5.20;1.87;;;2.70;99.90;;;;;;5071904;28;20434;-82
2022/02/25 05:25:28;;;;;;;4.90;2.17;;;2.70;99.90;;;;;;5072029;28;20251;-81
2022/02/25 05:27:56;;;;;;;5.23;2.10;;;2.70;99.90;;;;;;5070689;28;20456;-81
2022/02/25 05:30:22;;;;;;;6.63;2.00;;;2.70;99.90;;;;;;5071175;28;20969;-81
2022/02/25 05:32:49;;;;;;;4.90;1.60;;;2.80;99.90;;;;;;5071914;28;20776;-81
2022/02/25 05:35:17;;;;;;;9.50;2.50;;;2.80;99.90;;;;;;5072006;28;20413;-81
2022/02/25 05:37:44;;;;;;;5.40;1.80;;;2.80;99.90;;;;;;5075524;28;20414;-81
2022/02/25 05:40:11;;;;;;;7.33;2.00;;;2.80;99.90;;;;;;5075902;28;20419;-81
2022/02/25 05:42:38;;;;;;;5.07;2.13;;;2.80;99.90;;;;;;5075745;28;20941;-80
2022/02/25 05:45:05;;;;;;;11.33;2.27;;;2.80;99.90;;;;;;5075996;28;20465;-81
2022/02/25 05:47:31;;;;;;;5.60;1.57;;;2.80;99.90;;;;;;5075317;28;20463;-81
2022/02/25 05:49:56;;;;;;;7.80;2.53;;;2.80;99.90;;;;;;5075698;28;20910;-81
2022/02/25 05:52:22;;;;;;;7.37;1.70;;;2.80;99.90;;;;;;5075452;28;20450;-81
2022/02/25 05:54:48;;;;;;;7.13;2.00;;;2.80;99.90;;;;;;5075775;28;20166;-81
2022/02/25 05:57:14;;;;;;;4.27;2.00;;;2.80;99.90;;;;;;5075035;28;20178;-81
2022/02/25 05:59:40;;;;;;;5.40;1.60;;;2.90;99.90;;;;;;5075573;28;20627;-80
2022/02/25 06:02:06;;;;;;;7.43;1.83;;;2.90;99.90;;;;;;5073979;28;20431;-82
2022/02/25 06:04:32;;;;;;;5.57;2.13;;;2.90;99.90;;;;;;5075094;28;20508;-82
2022/02/25 06:06:58;;;;;;;6.97;2.00;;;2.90;99.90;;;;;;5074831;28;20976;-80
2022/02/25 06:09:23;;;;;;;8.83;1.87;;;2.90;99.90;;;;;;5075188;28;20276;-81
2022/02/25 06:11:49;;;;;;;6.27;1.63;;;3.00;99.90;;;;;;5075013;28;20482;-80
2022/02/25 06:14:15;;;;;;;6.90;2.13;;;2.90;99.90;;;;;;5073344;28;20181;-80
2022/02/25 06:16:40;;;;;;;4.30;1.57;;;2.90;99.90;;;;;;5074564;28;20177;-81
2022/02/25 06:19:07;;;;;;;5.83;2.17;;;2.90;99.90;;;;;;5074631;28;20178;-81
2022/02/25 06:21:32;;;;;;;5.67;1.53;;;2.90;99.90;;;;;;5074794;28;20257;-81
2022/02/25 06:23:58;;;;;;;8.43;2.30;;;3.00;99.90;;;;;;5074572;28;20910;-81
2022/02/25 06:26:23;;;;;;;9.70;2.63;;;3.10;99.90;;;;;;5076293;28;20182;-81
2022/02/25 06:28:50;;;;;;;7.70;1.87;;;3.10;99.90;;;;;;5076301;28;20213;-81
2022/02/25 06:31:16;;;;;;;9.07;1.77;;;3.10;99.90;;;;;;5076309;28;20181;-81
2022/02/25 06:33:41;;;;;;;5.10;1.70;;;3.10;99.90;;;;;;5075896;28;20433;-81
2022/02/25 06:36:07;;;;;;;5.00;2.60;;;3.20;99.90;;;;;;5075724;28;20650;-82
2022/02/25 06:38:32;;;;;;;5.43;1.57;;;3.30;99.90;;;;;;5074287;28;20231;-81
2022/02/25 06:40:58;;;;;;;7.40;1.90;;;3.30;99.90;;;;;;5076557;28;20688;-81
2022/02/25 06:43:23;;;;;;;6.90;1.77;;;3.30;99.90;;;;;;5075906;28;20234;-81
2022/02/25 06:45:49;;;;;;;7.10;2.17;;;3.40;99.90;;;;;;5075788;28;20273;-81
2022/02/25 06:48:15;;;;;;;6.07;2.10;;;3.40;99.90;;;;;;5074914;28;20244;-81
2022/02/25 06:50:40;;;;;;;10.20;2.27;;;3.40;99.90;;;;;;5074202;28;20171;-81
2022/02/25 06:53:06;;;;;;;6.63;3.00;;;3.50;99.90;;;;;;5075725;28;20259;-81
2022/02/25 06:55:31;;;;;;;7.80;2.17;;;3.50;99.90;;;;;;5075543;28;20181;-81
2022/02/25 06:57:57;;;;;;;3.50;1.30;;;3.40;99.90;;;;;;5073886;28;20186;-81
2022/02/25 07:00:23;;;;;;;9.13;1.73;;;3.50;99.90;;;;;;5073827;28;20186;-81
2022/02/25 07:02:50;;;;;;;4.70;2.10;;;3.50;99.90;;;;;;5074886;28;20200;-81
2022/02/25 07:05:17;;;;;;;5.27;1.80;;;3.60;99.90;;;;;;5075326;28;20413;-81
2022/02/25 07:07:43;;;;;;;15.47;2.57;;;3.60;99.90;;;;;;5074811;28;20499;-81
2022/02/25 07:10:08;;;;;;;6.77;2.20;;;3.70;99.90;;;;;;5075144;28;20409;-81
2022/02/25 07:12:34;;;;;;;4.63;1.63;;;3.70;99.90;;;;;;5074916;28;20234;-80
2022/02/25 07:15:00;;;;;;;4.03;1.63;;;3.80;99.90;;;;;;5073786;28;20441;-81
2022/02/25 07:17:25;;;;;;;8.60;2.07;;;3.90;99.90;;;;;;5074540;28;20178;-81
2022/02/25 07:19:51;;;;;;;5.87;1.90;;;4.00;99.90;;;;;;5075010;28;20259;-81
2022/02/25 07:22:17;;;;;;;4.67;1.80;;;4.10;99.90;;;;;;5074821;28;20516;-81
2022/02/25 07:24:42;;;;;;;5.27;1.63;;;4.10;99.90;;;;;;5074830;28;20178;-81
2022/02/25 07:27:08;;;;;;;10.90;1.95;;;4.10;99.90;;;;;;5072937;28;20174;-81
2022/02/25 07:29:34;;;;;;;7.43;2.00;;;4.20;99.90;;;;;;5074644;28;20178;-81
2022/02/25 07:32:00;;;;;;;8.07;1.97;;;4.30;99.90;;;;;;5074501;28;20547;-81
2022/02/25 07:34:26;;;;;;;8.83;2.37;;;4.30;99.90;;;;;;5074455;28;20543;-81
2022/02/25 07:36:51;;;;;;;7.53;2.20;;;4.40;99.90;;;;;;5074100;28;20171;-81
2022/02/25 07:39:17;;;;;;;14.53;3.63;;;4.50;99.90;;;;;;5073787;28;20179;-81
2022/02/25 07:41:43;;;;;;;6.43;2.07;;;4.50;99.90;;;;;;5074172;28;20540;-81
2022/02/25 07:44:09;;;;;;;6.50;2.37;;;4.50;99.90;;;;;;5074102;28;20191;-81
2022/02/25 07:46:34;;;;;;;10.67;3.40;;;4.60;99.90;;;;;;5073896;28;20416;-81
2022/02/25 07:49:00;;;;;;;6.13;1.77;;;4.60;99.90;;;;;;5072365;28;20575;-81
2022/02/25 07:51:27;;;;;;;5.00;1.90;;;4.70;99.90;;;;;;5074104;28;20171;-81
2022/02/25 07:53:55;;;;;;;7.73;2.90;;;4.60;99.90;;;;;;5123752;22;20233;-80
2022/02/25 07:56:24;;;;;;;8.90;1.60;;;4.70;99.90;;;;;;5098127;28;20475;-80
2022/02/25 07:58:50;;;;;;;7.23;2.13;;;4.70;99.90;;;;;;5100660;28;20933;-80
2022/02/25 08:01:16;;;;;;;5.20;1.90;;;4.70;99.90;;;;;;5092397;28;20434;-79
2022/02/25 08:03:42;;;;;;;10.47;2.00;;;4.80;99.90;;;;;;5095007;28;20197;-79
2022/02/25 08:06:09;;;;;;;7.70;1.87;;;4.90;99.90;;;;;;5098131;28;20511;-79
2022/02/25 08:08:36;;;;;;;7.00;2.03;;;4.80;99.90;;;;;;5097408;28;20841;-81
2022/02/25 08:11:04;;;;;;;6.20;1.87;;;4.80;99.90;;;;;;5096547;28;20412;-80
2022/02/25 08:13:30;;;;;;;5.63;2.77;;;4.90;99.90;;;;;;5096420;28;20474;-80
2022/02/25 08:15:56;;;;;;;8.43;2.23;;;5.00;99.90;;;;;;5097045;28;20436;-80
2022/02/25 08:18:22;;;;;;;10.00;2.60;;;4.90;99.90;;;;;;5097699;28;20467;-79
2022/02/25 08:20:48;;;;;;;5.83;2.47;;;5.00;99.90;;;;;;5096444;28;20492;-79
2022/02/25 08:23:15;;;;;;;13.40;2.47;;;5.00;99.90;;;;;;5095788;28;20471;-79
2022/02/25 08:25:41;;;;;;;8.63;2.83;;;5.10;99.90;;;;;;5094746;28;20182;-79
2022/02/25 08:28:09;;;;;;;6.43;2.80;;;5.10;99.90;;;;;;5095118;28;20466;-81
2022/02/25 08:30:36;;;;;;;5.43;2.00;;;5.10;99.90;;;;;;5095466;28;20409;-80
2022/02/25 08:33:03;;;;;;;10.47;2.50;;;5.20;99.90;;;;;;5094906;28;21016;-79
2022/02/25 08:35:32;;;;;;;6.60;2.30;;;5.30;99.90;;;;;;5094825;28;20421;-80
2022/02/25 08:37:59;;;;;;;6.30;1.93;;;5.30;99.90;;;;;;5094997;28;20926;-79
2022/02/25 08:40:26;;;;;;;6.33;2.17;;;5.40;99.90;;;;;;5096277;28;20793;-79
2022/02/25 08:42:52;;;;;;;7.10;2.07;;;5.30;99.90;;;;;;5095616;28;20422;-79
2022/02/25 08:45:18;;;;;;;5.97;2.13;;;5.30;99.90;;;;;;5095531;28;20440;-79
2022/02/25 08:47:45;;;;;;;8.67;2.53;;;5.30;99.90;;;;;;5095282;28;20472;-79
2022/02/25 08:50:14;;;;;;;6.83;2.43;;;5.00;99.90;;;;;;5095685;28;20178;-80
2022/02/25 08:52:40;;;;;;;6.43;3.10;;;4.90;99.90;;;;;;5096235;28;20428;-79
2022/02/25 08:55:07;;;;;;;7.00;2.43;;;5.00;99.90;;;;;;5096203;28;20432;-79
2022/02/25 08:57:33;;;;;;;7.07;2.43;;;4.90;99.90;;;;;;5094093;28;20432;-80
2022/02/25 08:59:58;;;;;;;9.00;2.40;;;4.90;99.90;;;;;;5094941;28;20819;-80
2022/02/25 09:02:24;;;;;;;7.50;2.13;;;5.00;99.90;;;;;;5096093;28;20425;-79
2022/02/25 09:04:50;;;;;;;4.00;1.93;;;5.00;99.90;;;;;;5095742;28;20432;-79
2022/02/25 09:07:16;;;;;;;5.43;2.33;;;5.00;99.90;;;;;;5084693;28;20588;-79
2022/02/25 09:09:42;;;;;;;6.20;2.80;;;5.10;99.90;;;;;;5088053;28;20174;-79
2022/02/25 09:12:10;;;;;;;14.53;3.10;;;5.20;99.90;;;;;;5100882;28;20261;-79
2022/02/25 09:14:36;;;;;;;10.37;2.50;;;5.10;99.90;;;;;;5100279;28;20229;-79
2022/02/25 09:17:02;;;;;;;6.53;2.30;;;5.20;99.90;;;;;;5100456;28;20492;-79
2022/02/25 09:19:28;;;;;;;5.67;3.10;;;5.30;99.90;;;;;;5099558;28;20179;-79
2022/02/25 09:21:54;;;;;;;6.83;3.13;;;5.40;99.90;;;;;;5101714;28;20793;-80
2022/02/25 09:24:21;;;;;;;8.00;3.10;;;5.50;99.90;;;;;;5102575;28;20552;-79
2022/02/25 09:26:48;;;;;;;11.53;3.57;;;5.60;99.90;;;;;;5100495;28;20582;-79
2022/02/25 09:29:14;;;;;;;6.27;2.67;;;5.70;99.90;;;;;;5099610;28;20458;-79
2022/02/25 09:31:40;;;;;;;6.20;2.53;;;5.60;99.90;;;;;;5100205;28;20432;-79
2022/02/25 09:34:06;;;;;;;8.30;3.30;;;5.80;99.90;;;;;;5100505;28;20260;-79
2022/02/25 09:36:33;;;;;;;12.53;4.53;;;5.90;99.90;;;;;;5100447;28;20487;-79
2022/02/25 09:38:59;;;;;;;9.80;3.10;;;5.90;99.90;;;;;;5100099;28;20450;-80
2022/02/25 09:41:26;;;;;;;7.93;2.90;;;5.90;99.90;;;;;;5105063;28;20418;-80
2022/02/25 09:43:52;;;;;;;6.47;2.57;;;5.90;99.90;;;;;;5092515;28;20468;-81
2022/02/25 09:46:18;;;;;;;8.03;2.93;;;5.90;99.90;;;;;;5085232;28;20439;-80
2022/02/25 09:48:43;;;;;;;7.10;2.80;;;5.90;99.90;;;;;;5083118;28;20206;-79
2022/02/25 09:51:10;;;;;;;10.73;2.80;;;6.10;99.90;;;;;;5083121;28;20528;-79
2022/02/25 09:53:36;;;;;;;9.87;2.53;;;6.20;99.90;;;;;;5082112;28;20554;-79
2022/02/25 09:56:02;;;;;;;12.07;2.93;;;6.10;99.90;;;;;;5081665;28;20451;-79
2022/02/25 09:58:28;;;;;;;12.17;3.00;;;6.20;99.90;;;;;;5082157;28;20428;-79
2022/02/25 10:00:54;;;;;;;6.00;2.37;;;6.30;99.90;;;;;;5080984;28;20423;-80
2022/02/25 10:03:21;;;;;;;8.40;3.30;;;6.50;99.90;;;;;;5081486;28;20187;-79
2022/02/25 10:05:48;;;;;;;7.73;2.97;;;6.40;99.90;;;;;;5081487;28;20209;-79
2022/02/25 10:08:16;;;;;;;5.77;2.30;;;6.40;99.90;;;;;;5081031;28;20456;-79
2022/02/25 10:10:49;;;;;;;8.93;3.30;;;6.40;99.90;;;;;;5081097;28;20791;-79
2022/02/25 10:13:17;;;;;;;7.30;2.87;;;6.40;99.90;;;;;;5081165;28;20512;-79
2022/02/25 10:15:44;;;;;;;7.07;3.10;;;6.60;99.90;;;;;;5080122;28;21132;-79
2022/02/25 10:18:10;;;;;;;11.00;2.97;;;6.80;99.90;;;;;;5080044;28;20459;-78
2022/02/25 10:20:36;;;;;;;6.10;2.40;;;6.90;99.90;;;;;;5080030;28;20444;-79
2022/02/25 10:23:17;;;;;;;14.13;3.50;;;7.10;99.90;;;;;;5077467;28;20186;-79
2022/02/25 10:25:42;;;;;;;6.57;3.20;;;7.20;99.90;;;;;;5076816;28;20424;-79
2022/02/25 10:28:08;;;;;;;9.30;2.93;;;7.10;99.90;;;;;;5076317;28;20520;-80
2022/02/25 10:30:37;;;;;;;12.27;3.20;;;7.40;99.90;;;;;;5077578;28;20586;-79
2022/02/25 10:33:03;;;;;;;9.93;3.30;;;7.50;99.90;;;;;;5077678;28;20214;-79
2022/02/25 10:35:33;;;;;;;12.53;3.23;;;7.70;99.90;;;;;;5076391;28;20421;-79
2022/02/25 10:38:17;;;;;;;6.53;3.60;;;7.90;99.90;;;;;;5077084;28;20421;-79
2022/02/25 10:40:50;;;;;;;17.40;5.33;;;7.60;99.90;;;;;;5076207;28;20505;-79
2022/02/25 10:43:21;;;;;;;12.30;3.13;;;7.70;99.90;;;;;;5076440;28;20487;-79
2022/02/25 10:45:49;;;;;;;12.03;3.40;;;7.90;99.90;;;;;;5076779;28;21023;-79
2022/02/25 10:48:19;;;;;;;11.13;4.23;;;7.80;99.90;;;;;;5076382;28;20453;-79
2022/02/25 10:50:59;;;;;;;7.60;3.53;;;7.80;99.90;;;;;;5077038;28;20492;-79
2022/02/25 10:53:30;;;;;;;9.60;3.10;;;7.70;99.90;;;;;;5076269;28;20803;-79
2022/02/25 10:56:07;;;;;;;9.63;3.10;;;7.80;99.90;;;;;;5076618;28;20732;-78
2022/02/25 10:58:46;;;;;;;8.53;3.13;;;7.60;99.90;;;;;;5076007;28;20425;-79
2022/02/25 11:01:13;;;;;;;7.73;3.00;;;7.60;99.90;;;;;;5076443;28;20425;-78
2022/02/25 11:03:41;;;;;;;12.67;3.30;;;7.50;99.90;;;;;;5076748;28;20417;-79
2022/02/25 11:06:11;;;;;;;12.37;4.03;;;7.50;99.90;;;;;;5075806;28;20455;-80
2022/02/25 11:08:38;;;;;;;13.33;3.90;;;7.60;99.90;;;;;;5075001;28;20457;-79
2022/02/25 11:11:04;;;;;;;8.33;3.93;;;7.70;99.90;;;;;;5075504;28;20464;-79
2022/02/25 11:13:33;;;;;;;9.83;3.10;;;7.90;99.90;;;;;;5075654;28;20791;-78
2022/02/25 11:16:00;;;;;;;11.03;3.60;;;8.10;99.90;;;;;;5075711;28;20433;-78
2022/02/25 11:18:26;;;;;;;10.20;3.33;;;8.30;99.90;;;;;;5074305;28;20425;-79
2022/02/25 11:20:54;;;;;;;6.53;3.20;;;8.50;99.90;;;;;;5074694;28;20916;-79
2022/02/25 11:23:23;;;;;;;8.57;3.30;;;8.30;99.90;;;;;;5074783;28;20417;-79
2022/02/25 11:25:49;;;;;;;5.93;3.10;;;8.50;99.90;;;;;;5074365;28;20417;-79
2022/02/25 11:28:16;;;;;;;9.50;3.10;;;8.70;99.90;;;;;;5074476;28;20456;-79
2022/02/25 11:31:24;;;;;;;6.80;2.87;;;8.50;99.90;;;;;;5074460;28;20891;-79
2022/02/25 11:33:52;;;;;;;10.33;3.33;;;8.70;99.90;;;;;;5073821;28;20448;-79
2022/02/25 11:36:18;;;;;;;6.60;2.50;;;8.40;99.90;;;;;;5073639;28;20805;-78
2022/02/25 11:38:47;;;;;;;8.77;3.17;;;8.40;99.90;;;;;;5074542;28;20429;-79
2022/02/25 11:41:21;;;;;;;9.80;3.43;;;8.00;99.90;;;;;;5073763;28;20417;-79
2022/02/25 11:43:52;;;;;;;11.33;3.63;;;7.90;99.90;;;;;;5073240;28;20417;-79
2022/02/25 11:46:27;;;;;;;6.23;2.63;;;8.00;99.90;;;;;;5073715;28;20514;-79
2022/02/25 11:49:03;;;;;;;11.43;3.60;;;8.00;99.90;;;;;;5074336;28;20456;-80
2022/02/25 11:51:44;;;;;;;5.40;2.97;;;7.80;99.90;;;;;;5074096;28;20433;-79
2022/02/25 11:54:27;;;;;;;5.50;3.17;;;7.90;99.90;;;;;;5074413;28;20436;-80
2022/02/25 11:56:56;;;;;;;7.43;2.73;;;8.50;99.90;;;;;;5073629;28;20445;-79
2022/02/25 11:59:47;;;;;;;13.77;3.50;;;10.20;99.90;;;;;;5075357;28;20425;-79
2022/02/25 12:02:22;;;;;;;6.47;3.00;;;11.20;99.90;;;;;;5074465;28;20425;-80
2022/02/25 12:04:54;;;;;;;10.67;3.50;;;11.30;99.90;;;;;;5073953;28;20421;-79
2022/02/25 12:07:44;;;;;;;9.70;2.70;;;10.90;99.90;;;;;;5073037;28;20896;-79
2022/02/25 12:10:12;;;;;;;8.53;2.80;;;10.50;99.90;;;;;;5073908;28;20449;-78
2022/02/25 12:12:56;;;;;;;7.70;3.30;;;9.80;99.90;;;;;;5074256;28;20421;-77
2022/02/25 12:15:34;;;;;;;8.37;3.50;;;9.40;99.90;;;;;;5074737;28;20413;-79
2022/02/25 12:18:03;;;;;;;5.40;3.40;;;9.10;99.90;;;;;;5074936;28;20421;-80
2022/02/25 12:20:40;;;;;;;7.90;2.80;;;9.70;99.90;;;;;;5075090;28;20446;-79
2022/02/25 12:23:09;;;;;;;8.00;3.73;;;10.00;99.90;;;;;;5074421;28;20463;-79
2022/02/25 12:25:41;;;;;;;9.57;2.97;;;10.40;99.90;;;;;;5085889;28;20487;-79
2022/02/25 12:30:56;;;;;;;7.00;3.17;;;11.60;99.90;;;;;;5076375;28;20497;-79
2022/02/25 12:33:33;;;;;;;4.40;2.70;;;11.60;99.90;;;;;;5076349;28;20417;-80
2022/02/25 12:36:02;;;;;;;8.40;3.30;;;11.20;99.90;;;;;;5076983;28;20465;-79
2022/02/25 12:38:30;;;;;;;6.53;2.77;;;10.60;99.90;;;;;;5076842;28;20416;-79
2022/02/25 12:41:16;;;;;;;6.80;3.30;;;9.80;99.90;;;;;;5077203;28;20421;-79
2022/02/25 12:43:49;;;;;;;13.73;4.77;;;9.10;99.90;;;;;;5076266;28;20946;-79
2022/02/25 12:46:18;;;;;;;10.83;3.80;;;8.40;99.90;;;;;;5075886;28;21216;-79
2022/02/25 12:48:44;;;;;;;10.13;3.70;;;8.10;99.90;;;;;;5077095;28;21152;-78
2022/02/25 12:51:10;;;;;;;9.57;3.73;;;8.00;99.90;;;;;;5075922;28;20786;-79
2022/02/25 12:53:54;;;;;;;9.70;3.30;;;7.70;99.90;;;;;;5075479;28;20433;-79
2022/02/25 12:56:23;;;;;;;8.60;3.07;;;7.30;99.90;;;;;;5076080;28;20191;-79
2022/02/25 12:58:50;;;;;;;8.97;4.43;;;7.10;99.90;;;;;;5075685;28;20528;-78
2022/02/25 13:01:22;;;;;;;9.20;4.67;;;6.80;99.90;;;;;;5075397;28;20421;-78
2022/02/25 13:04:21;;;;;;;6.00;3.37;;;6.50;99.90;;;;;;5075800;28;20425;-79